Time;durP1;ratioP1;P1;durP2;ratioP2;P2;SDS_P1;SDS_P2;PMS_P1;PMS_P2;Temp;Humidity;BMP_temperature;BMP_pressure;BME280_temperature;BME280_humidity;BME280_pressure;Samples;Min_cycle;Max_cycle;Signal;HPM_P1;HPM_P2
2023/08/16 00:00:14;;;;;;;4.27;4.00;;;22.00;99.90;;;;;;5018443;28;20455;-77
2023/08/16 00:02:47;;;;;;;4.70;4.30;;;22.00;99.90;;;;;;5018121;28;20458;-78
2023/08/16 00:06:22;;;;;;;4.77;4.23;;;22.00;99.90;;;;;;5017833;28;20451;-77
2023/08/16 00:09:04;;;;;;;5.13;4.60;;;22.00;99.90;;;;;;5022016;28;20455;-79
2023/08/16 00:11:45;;;;;;;5.30;4.80;;;22.00;99.90;;;;;;5019392;28;20880;-78
2023/08/16 00:14:35;;;;;;;5.33;4.90;;;22.00;99.90;;;;;;5020974;28;20471;-79
2023/08/16 00:17:29;;;;;;;4.70;4.30;;;22.00;99.90;;;;;;4959556;29;20880;-78
2023/08/16 00:20:11;;;;;;;5.43;4.90;;;21.90;99.90;;;;;;5019678;28;20534;-77
2023/08/16 00:22:48;;;;;;;4.80;4.30;;;21.90;99.90;;;;;;5017870;28;20483;-78
2023/08/16 00:28:30;;;;;;;;;;;;;;;;;;;;;
2023/08/16 00:31:09;;;;;;;4.70;4.30;;;22.00;99.90;;;;;;5021462;28;20450;-79
2023/08/16 00:33:46;;;;;;;4.63;4.30;;;21.90;99.90;;;;;;5023709;28;20473;-77
2023/08/16 00:36:22;;;;;;;5.80;4.03;;;21.90;99.90;;;;;;5026839;28;20502;-78
2023/08/16 00:42:01;;;;;;;4.80;4.40;;;21.70;99.90;;;;;;5023294;28;20443;-78
2023/08/16 00:44:45;;;;;;;4.97;4.57;;;21.70;99.90;;;;;;5022597;28;21011;-77
2023/08/16 00:50:17;;;;;;;5.73;5.00;;;21.70;99.90;;;;;;5020027;28;20454;-77
2023/08/16 00:53:04;;;;;;;5.30;5.00;;;21.70;99.90;;;;;;5021050;28;20805;-77
2023/08/16 00:56:06;;;;;;;5.00;4.67;;;21.70;99.90;;;;;;5018134;28;20471;-78
2023/08/16 00:58:59;;;;;;;4.83;4.43;;;21.70;99.90;;;;;;5023734;28;20453;-77
2023/08/16 01:01:37;;;;;;;5.90;5.00;;;21.70;99.90;;;;;;5024435;28;20488;-79
2023/08/16 01:04:23;;;;;;;5.50;4.80;;;21.60;99.90;;;;;;5020823;28;20446;-77
2023/08/16 01:06:57;;;;;;;5.70;4.97;;;21.60;99.90;;;;;;5019497;28;20489;-79
2023/08/16 01:09:42;;;;;;;7.07;5.53;;;21.60;99.90;;;;;;5019833;28;20458;-80
2023/08/16 01:12:47;;;;;;;6.07;5.37;;;21.50;99.90;;;;;;5018786;28;20485;-78
2023/08/16 01:21:55;;;;;;;5.10;4.77;;;21.30;99.90;;;;;;5013963;28;20459;-78
2023/08/16 01:24:39;;;;;;;5.77;5.27;;;21.20;99.90;;;;;;4994954;28;20467;-78
2023/08/16 01:27:34;;;;;;;6.50;6.07;;;21.10;99.90;;;;;;5020256;28;20518;-80
2023/08/16 01:30:10;;;;;;;5.13;4.83;;;21.10;99.90;;;;;;5005651;28;20455;-79
2023/08/16 01:33:19;;;;;;;5.33;4.93;;;21.10;99.90;;;;;;5019588;28;20474;-77
2023/08/16 01:36:27;;;;;;;5.43;5.07;;;21.10;99.90;;;;;;4999986;28;20472;-78
2023/08/16 01:39:35;;;;;;;5.37;4.97;;;21.10;99.90;;;;;;5002400;28;20459;-78
2023/08/16 01:42:26;;;;;;;5.93;5.43;;;21.10;99.90;;;;;;4920652;29;20464;-78
2023/08/16 01:45:40;;;;;;;4.57;4.37;;;21.20;99.90;;;;;;4914580;29;20460;-78
2023/08/16 01:48:47;;;;;;;5.30;4.97;;;21.00;99.90;;;;;;4917956;29;20464;-79
2023/08/16 01:58:12;;;;;;;5.00;4.50;;;20.90;99.90;;;;;;4935727;29;20459;-78
2023/08/16 02:01:16;;;;;;;6.87;5.50;;;20.90;99.90;;;;;;4952526;28;20452;-77
2023/08/16 02:04:22;;;;;;;5.03;4.67;;;20.90;99.90;;;;;;4994456;28;20499;-77
2023/08/16 02:07:39;;;;;;;;;;;;;;;;;;;;;
2023/08/16 02:10:54;;;;;;;7.60;5.93;;;20.80;99.90;;;;;;4998993;28;20447;-78
2023/08/16 02:13:33;;;;;;;5.90;5.40;;;20.70;99.90;;;;;;4968044;28;20476;-77
2023/08/16 02:16:14;;;;;;;6.67;6.10;;;20.70;99.90;;;;;;4998088;28;20488;-77
2023/08/16 02:18:59;;;;;;;6.00;5.50;;;20.70;99.90;;;;;;4996804;28;20507;-78
2023/08/16 02:21:48;;;;;;;5.53;5.13;;;20.80;99.90;;;;;;4999521;28;20963;-78
2023/08/16 02:24:33;;;;;;;5.87;5.43;;;20.70;99.90;;;;;;4997794;28;20777;-78
2023/08/16 02:27:16;;;;;;;6.80;6.10;;;20.60;99.90;;;;;;4997863;28;20546;-79
2023/08/16 02:30:04;;;;;;;7.50;6.77;;;20.60;99.90;;;;;;4997180;28;20455;-78
2023/08/16 02:35:37;;;;;;;6.60;6.10;;;20.70;99.90;;;;;;4996365;28;20822;-77
2023/08/16 02:38:27;;;;;;;5.87;5.40;;;20.70;99.90;;;;;;4997532;28;20456;-77
2023/08/16 02:41:09;;;;;;;7.10;6.50;;;20.60;99.90;;;;;;5005047;28;20507;-78
2023/08/16 02:43:58;;;;;;;6.57;5.73;;;20.50;99.90;;;;;;5007383;28;20448;-78
2023/08/16 02:46:32;;;;;;;5.73;5.27;;;20.50;99.90;;;;;;5007562;28;20543;-78
2023/08/16 02:49:05;;;;;;;6.93;5.73;;;20.50;99.90;;;;;;5007186;28;20486;-79
2023/08/16 02:51:45;;;;;;;6.50;6.00;;;20.50;99.90;;;;;;5001121;28;20484;-78
2023/08/16 02:54:18;;;;;;;6.50;6.00;;;20.50;99.90;;;;;;5005863;28;20487;-78
2023/08/16 03:00:13;;;;;;;7.20;6.70;;;20.50;99.90;;;;;;5000493;28;20539;-78
2023/08/16 03:02:57;;;;;;;6.77;6.03;;;20.50;99.90;;;;;;5002718;28;20551;-78
2023/08/16 03:05:38;;;;;;;5.80;5.37;;;20.50;99.90;;;;;;5002524;28;20490;-78
2023/08/16 03:08:49;;;;;;;6.97;6.47;;;20.40;99.90;;;;;;5001573;28;20563;-78
2023/08/16 03:14:31;;;;;;;6.17;5.77;;;20.40;99.90;;;;;;4998928;28;20499;-77
2023/08/16 03:17:27;;;;;;;6.27;5.50;;;20.30;99.90;;;;;;5000877;28;20473;-78
2023/08/16 03:20:09;;;;;;;7.17;6.67;;;20.30;99.90;;;;;;4996826;28;20528;-78
2023/08/16 03:26:02;;;;;;;5.40;4.90;;;20.00;99.90;;;;;;4952031;28;20472;-77
2023/08/16 03:28:57;;;;;;;7.53;6.83;;;20.30;99.90;;;;;;5003805;28;20478;-78
2023/08/16 03:31:51;;;;;;;6.37;5.87;;;20.20;99.90;;;;;;5006564;28;20467;-80
2023/08/16 03:35:00;;;;;;;6.87;6.07;;;20.20;99.90;;;;;;5007517;28;20491;-79
2023/08/16 03:40:59;;;;;;;6.40;5.43;;;20.20;99.90;;;;;;4987639;28;20430;-78
2023/08/16 03:43:38;;;;;;;7.47;5.87;;;20.10;99.90;;;;;;4997559;28;20508;-79
2023/08/16 03:46:14;;;;;;;7.20;6.10;;;20.10;99.90;;;;;;4996991;28;20476;-78
2023/08/16 03:48:59;;;;;;;6.17;5.57;;;19.80;99.90;;;;;;4996824;28;20442;-79
2023/08/16 03:51:43;;;;;;;7.10;6.40;;;20.10;99.90;;;;;;4995801;28;20417;-79
2023/08/16 03:54:18;;;;;;;7.20;6.70;;;20.00;99.90;;;;;;4996286;28;20544;-79
2023/08/16 03:57:00;;;;;;;6.27;5.87;;;20.00;99.90;;;;;;4996088;28;20847;-78
2023/08/16 03:59:28;;;;;;;6.60;5.90;;;20.00;99.90;;;;;;4996790;28;20466;-78
2023/08/16 04:02:00;;;;;;;5.60;5.20;;;20.00;99.90;;;;;;4997696;28;20896;-79
2023/08/16 04:05:04;;;;;;;6.33;5.90;;;20.00;99.90;;;;;;4997879;28;20451;-80
2023/08/16 04:07:42;;;;;;;6.23;5.83;;;19.90;99.90;;;;;;4988939;28;20476;-79
2023/08/16 04:10:19;;;;;;;6.63;6.17;;;19.70;99.90;;;;;;4998642;28;20460;-81
2023/08/16 04:13:00;;;;;;;7.10;6.50;;;19.60;99.90;;;;;;5000022;28;20478;-78
2023/08/16 04:15:41;;;;;;;7.60;7.00;;;19.60;99.90;;;;;;5001130;28;20472;-78
2023/08/16 04:18:23;;;;;;;8.90;8.00;;;19.60;99.90;;;;;;5001956;28;20468;-77
2023/08/16 04:21:06;;;;;;;7.53;6.93;;;19.60;99.90;;;;;;4995095;28;20835;-78
2023/08/16 04:23:46;;;;;;;7.30;6.83;;;19.60;99.90;;;;;;4994444;28;20452;-79
2023/08/16 04:26:30;;;;;;;7.30;6.70;;;19.60;99.90;;;;;;4993822;28;20567;-78
2023/08/16 04:29:16;;;;;;;6.60;6.00;;;19.60;99.90;;;;;;4996214;28;20463;-78
2023/08/16 04:32:08;;;;;;;6.63;6.03;;;19.60;99.90;;;;;;4998764;28;20456;-78
2023/08/16 04:34:58;;;;;;;7.13;6.10;;;19.60;99.90;;;;;;5001944;28;20480;-79
2023/08/16 04:37:34;;;;;;;8.13;7.53;;;19.60;99.90;;;;;;4998339;28;20448;-78
2023/08/16 04:40:20;;;;;;;9.40;8.67;;;19.70;99.90;;;;;;4999240;28;20491;-79
2023/08/16 04:42:50;;;;;;;6.10;5.50;;;19.70;99.90;;;;;;4998973;28;20448;-79
2023/08/16 04:45:25;;;;;;;6.80;6.20;;;19.80;99.90;;;;;;4999280;28;20487;-79
2023/08/16 04:48:15;;;;;;;6.83;6.20;;;19.80;99.90;;;;;;4998586;28;20455;-79
2023/08/16 04:51:03;;;;;;;6.77;6.17;;;19.60;99.90;;;;;;4999112;28;20523;-78
2023/08/16 04:56:48;;;;;;;5.93;5.53;;;19.80;99.90;;;;;;4997270;28;20452;-80
2023/08/16 05:02:52;;;;;;;5.77;5.37;;;19.80;99.90;;;;;;4994331;28;20532;-78
2023/08/16 05:05:40;;;;;;;8.50;7.23;;;19.80;99.90;;;;;;4994690;28;20494;-78
2023/08/16 05:08:13;;;;;;;6.97;6.47;;;19.80;99.90;;;;;;4994063;28;20506;-79
2023/08/16 05:10:50;;;;;;;7.60;6.57;;;19.80;99.90;;;;;;4995923;28;20939;-78
2023/08/16 05:13:37;;;;;;;8.63;7.93;;;19.80;99.90;;;;;;4997567;28;20459;-78
2023/08/16 05:16:13;;;;;;;9.47;8.60;;;19.80;99.90;;;;;;4998710;28;20474;-80
2023/08/16 05:18:52;;;;;;;8.40;7.80;;;19.80;99.90;;;;;;4998396;28;20522;-78
2023/08/16 05:21:25;;;;;;;9.73;8.93;;;19.80;99.90;;;;;;4997824;28;20514;-79
2023/08/16 05:24:02;;;;;;;9.73;8.93;;;19.90;99.90;;;;;;4998252;28;20429;-78
2023/08/16 05:30:17;;;;;;;7.67;6.97;;;20.00;99.90;;;;;;4999594;28;21239;-79
2023/08/16 05:33:00;;;;;;;8.47;7.67;;;20.10;99.90;;;;;;5007853;28;20452;-80
2023/08/16 05:35:48;;;;;;;10.20;8.40;;;20.20;99.90;;;;;;5007048;28;20566;-80
2023/08/16 05:41:57;;;;;;;8.90;8.00;;;20.40;99.90;;;;;;5004484;28;20428;-78
2023/08/16 05:45:12;;;;;;;8.27;7.40;;;20.50;99.90;;;;;;5007048;28;20456;-79
2023/08/16 05:48:14;;;;;;;6.90;6.33;;;20.60;99.90;;;;;;5010718;28;20460;-78
2023/08/16 05:50:56;;;;;;;7.70;7.10;;;20.70;99.90;;;;;;4978364;28;20452;-78
2023/08/16 05:53:31;;;;;;;7.63;6.93;;;20.80;99.90;;;;;;5004061;28;20936;-79
2023/08/16 05:55:58;;;;;;;8.30;7.57;;;20.90;99.90;;;;;;5000402;28;20466;-78
2023/08/16 05:58:26;;;;;;;7.57;7.07;;;21.00;99.90;;;;;;4998336;28;20466;-79
2023/08/16 06:01:04;;;;;;;8.80;8.00;;;21.10;99.90;;;;;;4998729;28;20451;-79
2023/08/16 06:03:36;;;;;;;7.17;6.57;;;21.10;99.90;;;;;;5003762;28;20543;-80
2023/08/16 06:06:08;;;;;;;7.27;6.67;;;21.30;99.90;;;;;;5015819;28;20471;-78
2023/08/16 06:11:34;;;;;;;7.20;6.67;;;21.70;99.90;;;;;;5020665;28;20458;-78
2023/08/16 06:14:22;;;;;;;7.50;6.80;;;22.00;99.90;;;;;;5022704;28;20487;-78
2023/08/16 06:17:13;;;;;;;8.43;7.63;;;22.10;99.90;;;;;;5024445;28;20510;-77
2023/08/16 06:20:03;;;;;;;8.20;7.60;;;22.30;99.90;;;;;;5024289;28;20455;-77
2023/08/16 06:22:49;;;;;;;6.50;6.00;;;22.40;99.90;;;;;;5023620;28;20457;-78
2023/08/16 06:25:21;;;;;;;7.00;6.47;;;22.50;99.90;;;;;;5020631;28;20952;-78
2023/08/16 06:28:07;;;;;;;6.43;5.83;;;22.50;99.90;;;;;;5017604;28;20459;-79
2023/08/16 06:30:41;;;;;;;6.63;6.13;;;22.50;99.90;;;;;;5003166;28;20885;-78
2023/08/16 06:36:11;;;;;;;7.00;6.40;;;22.50;99.90;;;;;;4978661;28;20509;-78
2023/08/16 06:38:48;;;;;;;6.97;6.03;;;22.50;99.90;;;;;;5010779;28;20451;-78
2023/08/16 06:41:19;;;;;;;6.60;5.30;;;22.50;99.90;;;;;;5018816;28;20451;-78
2023/08/16 06:43:55;;;;;;;12.87;6.27;;;22.50;99.90;;;;;;5019728;28;20542;-78
2023/08/16 06:46:26;;;;;;;7.60;6.40;;;22.50;99.90;;;;;;5006729;28;20472;-79
2023/08/16 06:48:54;;;;;;;5.77;4.43;;;22.50;99.90;;;;;;4999441;28;20460;-79
2023/08/16 06:51:28;;;;;;;5.67;5.27;;;22.60;99.90;;;;;;4998740;28;20848;-77
2023/08/16 06:53:57;;;;;;;4.90;4.60;;;22.70;99.90;;;;;;4998384;28;20475;-81
2023/08/16 06:56:26;;;;;;;5.57;5.07;;;22.70;99.90;;;;;;4997552;28;20456;-78
2023/08/16 06:58:53;;;;;;;6.93;6.30;;;22.80;99.90;;;;;;4997987;28;20464;-79
2023/08/16 07:01:31;;;;;;;6.27;5.70;;;22.80;99.90;;;;;;4998133;28;20798;-77
2023/08/16 07:04:07;;;;;;;6.77;6.20;;;22.90;99.90;;;;;;4999896;28;20952;-77
2023/08/16 07:06:43;;;;;;;5.97;5.57;;;23.00;99.90;;;;;;4998219;28;20481;-79
2023/08/16 07:09:32;;;;;;;7.00;6.30;;;23.10;99.90;;;;;;4998726;28;20448;-78
2023/08/16 07:12:19;;;;;;;7.37;6.73;;;23.20;99.90;;;;;;4997694;28;20820;-78
2023/08/16 07:15:33;;;;;;;7.83;7.33;;;23.30;99.90;;;;;;4995986;28;20549;-79
2023/08/16 07:18:27;;;;;;;8.40;6.90;;;23.40;99.90;;;;;;4996510;28;20452;-77
2023/08/16 07:21:14;;;;;;;7.30;6.70;;;23.40;99.90;;;;;;4996814;28;20460;-78
2023/08/16 07:23:52;;;;;;;7.10;6.50;;;23.50;99.90;;;;;;4995736;28;20908;-78
2023/08/16 07:26:39;;;;;;;7.03;6.43;;;23.70;99.90;;;;;;4996943;28;20471;-81
2023/08/16 07:29:39;;;;;;;7.50;6.80;;;23.90;99.90;;;;;;5002805;28;20456;-77
2023/08/16 07:32:16;;;;;;;7.63;6.90;;;24.10;99.90;;;;;;5000951;28;20456;-78
2023/08/16 07:34:53;;;;;;;7.33;6.73;;;24.10;99.90;;;;;;5002983;28;20476;-77
2023/08/16 07:37:33;;;;;;;8.67;7.00;;;24.10;99.90;;;;;;5001871;28;20540;-78
2023/08/16 07:40:23;;;;;;;7.90;7.30;;;24.30;99.90;;;;;;5002071;28;20479;-77
2023/08/16 07:43:01;;;;;;;8.13;7.53;;;24.60;99.90;;;;;;4994920;28;20460;-78
2023/08/16 07:45:39;;;;;;;7.90;7.20;;;24.40;99.90;;;;;;4993896;28;20452;-78
2023/08/16 07:48:13;;;;;;;7.50;6.83;;;24.30;99.90;;;;;;4994037;28;20421;-78
2023/08/16 07:50:52;;;;;;;9.00;6.80;;;24.40;99.90;;;;;;4993379;28;20807;-79
2023/08/16 07:53:37;;;;;;;8.27;7.57;;;24.40;99.90;;;;;;4993579;28;20456;-78
2023/08/16 07:56:14;;;;;;;7.97;7.27;;;24.70;99.90;;;;;;4994261;28;20484;-78
2023/08/16 07:58:47;;;;;;;7.80;7.20;;;24.80;99.90;;;;;;4993665;28;20456;-77
2023/08/16 08:01:17;;;;;;;8.27;7.67;;;24.90;99.90;;;;;;4997064;28;20451;-80
2023/08/16 08:03:48;;;;;;;11.63;7.47;;;24.90;99.90;;;;;;4998740;28;20972;-79
2023/08/16 08:06:16;;;;;;;8.20;7.50;;;24.90;99.90;;;;;;5002333;28;20475;-79
2023/08/16 08:08:47;;;;;;;8.27;7.53;;;25.10;99.90;;;;;;4998005;28;20479;-77
2023/08/16 08:11:18;;;;;;;8.70;7.90;;;25.10;99.90;;;;;;4997559;28;20536;-78
2023/08/16 08:13:54;;;;;;;7.80;7.20;;;25.20;99.90;;;;;;5000464;28;20444;-78
2023/08/16 08:16:21;;;;;;;10.03;7.00;;;25.20;99.90;;;;;;4986282;28;21063;-79
2023/08/16 08:18:55;;;;;;;8.10;7.40;;;25.30;99.90;;;;;;4997610;28;20452;-77
2023/08/16 08:21:34;;;;;;;9.37;8.57;;;25.20;99.90;;;;;;4988415;28;20448;-80
2023/08/16 08:24:05;;;;;;;8.40;7.70;;;25.40;99.90;;;;;;4993950;28;20443;-79
2023/08/16 08:26:37;;;;;;;7.20;6.50;;;25.60;99.90;;;;;;4991201;28;20968;-80
2023/08/16 08:29:10;;;;;;;7.10;6.50;;;25.70;99.90;;;;;;4996100;28;20440;-80
2023/08/16 08:31:46;;;;;;;8.23;7.03;;;25.90;99.90;;;;;;4995675;28;20433;-80
2023/08/16 08:34:14;;;;;;;7.37;6.87;;;26.10;99.90;;;;;;4992708;28;20458;-81
2023/08/16 08:36:42;;;;;;;9.13;8.10;;;26.20;99.90;;;;;;4988924;28;20552;-78
2023/08/16 08:39:15;;;;;;;7.77;6.80;;;26.20;99.90;;;;;;4991972;28;20483;-79
2023/08/16 08:41:48;;;;;;;7.50;6.77;;;26.40;99.90;;;;;;4990318;28;20856;-80
2023/08/16 08:44:20;;;;;;;7.63;6.93;;;26.50;99.90;;;;;;4990605;28;20445;-80
2023/08/16 08:47:11;;;;;;;;;;;;;;;;;;;;;
2023/08/16 08:49:45;;;;;;;7.53;6.93;;;26.80;99.90;;;;;;4994529;28;20587;-78
2023/08/16 08:52:17;;;;;;;7.40;6.80;;;26.90;99.90;;;;;;4994313;28;20476;-79
2023/08/16 08:54:53;;;;;;;7.53;6.83;;;27.00;99.90;;;;;;4994280;28;20536;-77
2023/08/16 08:57:23;;;;;;;8.10;7.50;;;27.10;99.90;;;;;;4995641;28;20457;-79
2023/08/16 08:59:53;;;;;;;7.17;6.57;;;27.60;99.90;;;;;;4984917;28;20550;-78
2023/08/16 09:02:22;;;;;;;6.97;6.37;;;27.70;99.90;;;;;;4988846;28;20531;-78
2023/08/16 09:04:59;;;;;;;7.20;6.60;;;28.00;99.90;;;;;;4994107;28;20444;-77
2023/08/16 09:07:31;;;;;;;7.50;6.90;;;28.00;99.90;;;;;;4993702;28;20454;-79
2023/08/16 09:10:04;;;;;;;6.60;6.10;;;28.30;99.90;;;;;;4983077;28;20473;-81
2023/08/16 09:12:32;;;;;;;7.83;7.20;;;28.40;99.90;;;;;;4986480;28;20476;-80
2023/08/16 09:15:02;;;;;;;6.80;6.27;;;28.40;99.90;;;;;;4993610;28;20552;-78
2023/08/16 09:17:30;;;;;;;6.83;6.23;;;28.50;99.90;;;;;;4998845;28;20460;-78
2023/08/16 09:20:01;;;;;;;6.83;6.33;;;28.50;99.90;;;;;;5011275;28;20448;-79
2023/08/16 09:22:30;;;;;;;8.33;7.57;;;28.30;99.90;;;;;;5006735;28;20525;-78
2023/08/16 09:24:58;;;;;;;6.73;6.13;;;28.60;99.90;;;;;;4994490;28;20449;-78
2023/08/16 09:27:29;;;;;;;6.70;6.20;;;29.10;99.90;;;;;;4985057;28;20475;-79
2023/08/16 09:30:01;;;;;;;7.10;6.43;;;29.40;99.90;;;;;;5000656;28;20980;-78
2023/08/16 09:32:34;;;;;;;7.73;6.83;;;29.60;99.90;;;;;;5007231;28;20440;-79
2023/08/16 09:35:04;;;;;;;6.77;6.37;;;29.80;99.90;;;;;;4992206;28;20543;-79
2023/08/16 09:37:33;;;;;;;7.20;6.60;;;29.90;99.90;;;;;;5006044;28;20440;-79
2023/08/16 09:40:04;;;;;;;6.63;6.17;;;30.00;99.90;;;;;;5003503;28;20459;-79
2023/08/16 09:42:50;;;;;;;7.10;6.60;;;29.60;99.90;;;;;;4989985;28;20468;-78
2023/08/16 09:45:33;;;;;;;7.30;6.13;;;29.20;99.90;;;;;;4987988;28;20449;-77
2023/08/16 09:48:09;;;;;;;6.23;5.93;;;29.40;99.90;;;;;;4991196;28;20464;-77
2023/08/16 09:50:40;;;;;;;7.03;6.40;;;29.90;99.90;;;;;;5011241;28;20444;-78
2023/08/16 09:53:08;;;;;;;8.63;7.93;;;30.30;99.90;;;;;;5009384;28;20463;-77
2023/08/16 09:55:36;;;;;;;7.27;6.57;;;30.50;99.90;;;;;;5020244;28;20522;-79
2023/08/16 09:58:08;;;;;;;6.70;6.20;;;30.40;99.90;;;;;;5005009;28;20531;-81
2023/08/16 10:00:37;;;;;;;7.20;6.60;;;30.30;99.90;;;;;;5004853;28;20467;-80
2023/08/16 10:03:11;;;;;;;7.20;6.70;;;30.20;99.90;;;;;;5009829;28;20554;-79
2023/08/16 10:05:43;;;;;;;7.37;6.77;;;30.40;99.90;;;;;;5009770;28;20992;-79
2023/08/16 10:08:10;;;;;;;7.57;7.03;;;30.50;99.90;;;;;;5002969;28;21057;-79
2023/08/16 10:10:44;;;;;;;7.70;7.10;;;31.00;99.90;;;;;;5005684;28;20457;-80
2023/08/16 10:13:21;;;;;;;8.10;6.17;;;31.10;99.90;;;;;;4988553;28;20539;-79
2023/08/16 10:15:52;;;;;;;7.00;6.50;;;31.20;99.90;;;;;;4990652;28;20509;-78
2023/08/16 10:18:24;;;;;;;10.83;6.47;;;30.70;99.90;;;;;;4995728;28;20487;-78
2023/08/16 10:21:00;;;;;;;8.30;7.47;;;31.10;99.90;;;;;;4981080;28;20879;-79
2023/08/16 10:23:30;;;;;;;7.77;7.10;;;31.20;99.90;;;;;;4995236;28;20451;-80
2023/08/16 10:26:02;;;;;;;6.73;6.33;;;31.20;99.90;;;;;;5000144;28;20503;-78
2023/08/16 10:28:31;;;;;;;7.00;6.53;;;31.10;99.90;;;;;;4999811;28;20501;-79
2023/08/16 10:31:04;;;;;;;6.77;6.20;;;30.80;99.90;;;;;;4998523;28;20475;-78
2023/08/16 10:33:37;;;;;;;9.90;7.57;;;30.40;99.90;;;;;;4989872;28;20543;-80
2023/08/16 10:36:10;;;;;;;7.93;7.13;;;30.70;99.90;;;;;;4991390;28;20475;-82
2023/08/16 10:38:40;;;;;;;7.13;6.63;;;31.00;99.90;;;;;;4999195;28;20610;-78
2023/08/16 10:41:12;;;;;;;7.03;6.53;;;31.30;99.90;;;;;;4979546;28;20536;-79
2023/08/16 10:43:46;;;;;;;6.73;6.23;;;31.80;99.90;;;;;;4987590;28;20967;-79
2023/08/16 10:46:14;;;;;;;6.63;6.03;;;32.00;99.90;;;;;;5000477;28;20499;-80
2023/08/16 10:48:50;;;;;;;7.07;6.50;;;32.00;99.90;;;;;;5003151;28;20936;-79
2023/08/16 10:51:21;;;;;;;6.80;6.20;;;31.90;99.90;;;;;;5001782;28;20506;-78
2023/08/16 10:53:52;;;;;;;7.50;6.60;;;31.70;99.90;;;;;;4989611;28;20879;-78
2023/08/16 10:56:20;;;;;;;7.23;6.73;;;31.90;99.90;;;;;;4994253;28;20530;-79
2023/08/16 10:58:50;;;;;;;7.30;6.60;;;32.20;99.90;;;;;;4982824;28;20468;-78
2023/08/16 11:01:20;;;;;;;6.47;6.07;;;32.30;99.90;;;;;;4997375;28;20453;-79
2023/08/16 11:04:02;;;;;;;7.10;6.50;;;32.80;99.90;;;;;;4998624;28;20488;-78
2023/08/16 11:06:32;;;;;;;8.00;6.00;;;32.60;99.90;;;;;;4998226;28;20471;-79
2023/08/16 11:09:03;;;;;;;6.00;5.60;;;32.60;99.90;;;;;;5003152;28;20531;-79
2023/08/16 11:11:36;;;;;;;6.67;6.17;;;32.80;99.90;;;;;;4996303;28;20464;-78
2023/08/16 11:14:10;;;;;;;6.93;6.33;;;32.90;99.90;;;;;;5025205;28;20455;-80
2023/08/16 11:16:38;;;;;;;7.20;6.50;;;32.60;99.90;;;;;;5006385;28;20559;-79
2023/08/16 11:19:11;;;;;;;7.47;6.30;;;32.50;99.90;;;;;;5003820;28;20519;-79
2023/08/16 11:21:44;;;;;;;6.30;5.87;;;32.80;99.90;;;;;;5002237;28;20472;-78
2023/08/16 11:24:11;;;;;;;6.70;6.13;;;33.20;99.90;;;;;;4982956;28;20456;-78
2023/08/16 11:26:44;;;;;;;6.20;5.70;;;33.20;99.90;;;;;;4978667;28;20495;-80
2023/08/16 11:29:13;;;;;;;6.03;5.60;;;33.60;99.90;;;;;;4997790;28;20459;-79
2023/08/16 11:34:33;;;;;;;6.40;5.90;;;33.90;99.90;;;;;;4998585;28;20440;-79
2023/08/16 11:37:06;;;;;;;6.67;6.17;;;33.60;99.90;;;;;;4983227;28;20476;-78
2023/08/16 11:39:39;;;;;;;6.00;5.47;;;33.90;99.90;;;;;;4995917;28;20463;-78
2023/08/16 11:42:08;;;;;;;7.07;6.47;;;34.30;99.90;;;;;;4997928;28;20462;-78
2023/08/16 11:44:41;;;;;;;6.60;5.60;;;34.60;99.90;;;;;;5005633;28;20465;-78
2023/08/16 11:47:18;;;;;;;6.03;5.57;;;34.70;99.90;;;;;;4985866;28;20468;-79
2023/08/16 11:50:10;;;;;;;6.13;5.60;;;34.90;99.90;;;;;;4985458;28;20452;-80
2023/08/16 11:52:57;;;;;;;6.13;5.63;;;34.90;99.90;;;;;;4995197;28;20454;-79
2023/08/16 11:55:29;;;;;;;5.60;5.13;;;34.90;99.90;;;;;;4988765;28;20540;-81
2023/08/16 11:58:10;;;;;;;7.00;6.40;;;34.70;99.90;;;;;;4986067;28;20448;-81
2023/08/16 12:00:42;;;;;;;6.90;6.30;;;34.30;99.90;;;;;;4989045;28;20544;-80
2023/08/16 12:03:15;;;;;;;6.67;6.13;;;34.00;99.90;;;;;;4994303;28;20538;-78
2023/08/16 12:05:51;;;;;;;6.90;6.40;;;34.00;99.90;;;;;;4995512;28;20472;-80
2023/08/16 12:08:33;;;;;;;6.83;6.20;;;34.10;99.90;;;;;;4995839;28;20498;-80
2023/08/16 12:11:07;;;;;;;6.70;6.20;;;33.70;99.90;;;;;;4996108;28;20480;-79
2023/08/16 12:13:39;;;;;;;6.70;6.20;;;33.40;99.90;;;;;;4994874;28;20456;-80
2023/08/16 12:16:07;;;;;;;6.90;6.40;;;33.40;99.90;;;;;;4995035;28;20856;-79
2023/08/16 12:18:39;;;;;;;7.40;5.73;;;34.40;99.90;;;;;;4990344;28;20842;-78
2023/08/16 12:21:12;;;;;;;5.87;5.37;;;34.50;99.90;;;;;;4996722;28;20452;-80
2023/08/16 12:23:43;;;;;;;6.50;5.70;;;34.90;99.90;;;;;;4994376;28;20502;-78
2023/08/16 12:26:18;;;;;;;6.07;5.57;;;34.60;99.90;;;;;;4995379;28;20483;-79
2023/08/16 12:28:49;;;;;;;6.10;5.60;;;35.00;99.90;;;;;;4996082;28;20459;-80
2023/08/16 12:31:23;;;;;;;5.23;4.90;;;35.30;99.90;;;;;;4996541;28;20448;-82
2023/08/16 12:33:56;;;;;;;5.77;5.37;;;35.40;99.90;;;;;;4995412;28;21035;-79
2023/08/16 12:36:25;;;;;;;5.87;5.37;;;35.30;99.90;;;;;;4995081;28;21093;-79
2023/08/16 12:38:56;;;;;;;5.60;5.17;;;35.70;99.90;;;;;;4997941;28;20455;-80
2023/08/16 12:41:25;;;;;;;6.23;5.73;;;35.30;99.90;;;;;;4995738;28;20455;-81
2023/08/16 12:43:59;;;;;;;5.67;5.23;;;34.50;99.90;;;;;;4996263;28;20472;-78
2023/08/16 12:46:31;;;;;;;5.63;5.20;;;34.30;99.90;;;;;;4995720;28;20495;-79
2023/08/16 12:49:03;;;;;;;6.70;4.60;;;34.90;99.90;;;;;;4997919;28;20490;-79
2023/08/16 12:51:37;;;;;;;5.07;4.67;;;35.50;99.90;;;;;;4997598;28;20476;-78
2023/08/16 12:54:11;;;;;;;6.60;5.30;;;36.10;99.90;;;;;;4996882;28;20839;-79
2023/08/16 12:56:39;;;;;;;5.50;5.00;;;35.90;99.90;;;;;;4995747;28;21018;-81
2023/08/16 12:59:13;;;;;;;5.13;4.73;;;35.90;99.90;;;;;;4995075;28;20992;-80
2023/08/16 13:01:42;;;;;;;5.73;4.60;;;35.80;99.90;;;;;;4996577;28;20452;-79
2023/08/16 13:04:10;;;;;;;4.80;4.50;;;36.10;99.90;;;;;;4995495;28;20479;-78
2023/08/16 13:06:40;;;;;;;4.63;4.20;;;36.60;99.90;;;;;;4994834;28;20456;-78
2023/08/16 13:09:09;;;;;;;4.80;4.40;;;36.60;99.90;;;;;;4994832;28;20830;-77
2023/08/16 13:11:37;;;;;;;4.30;4.00;;;36.40;99.90;;;;;;4995076;28;20468;-79
2023/08/16 13:14:10;;;;;;;4.50;4.10;;;36.20;99.90;;;;;;4994248;28;20465;-79
2023/08/16 13:16:47;;;;;;;4.83;4.40;;;36.50;99.90;;;;;;4994431;28;20498;-78
2023/08/16 13:19:16;;;;;;;4.27;3.97;;;36.50;99.90;;;;;;4994909;28;20516;-80
2023/08/16 13:21:48;;;;;;;4.83;4.43;;;36.80;99.50;;;;;;4994452;28;20531;-78
2023/08/16 13:24:16;;;;;;;4.10;3.80;;;36.80;98.70;;;;;;4993521;28;20448;-78
2023/08/16 13:26:45;;;;;;;5.00;4.53;;;36.70;98.30;;;;;;4992438;28;20478;-78
2023/08/16 13:29:13;;;;;;;4.90;4.03;;;36.10;98.80;;;;;;4993348;28;20448;-79
2023/08/16 13:31:42;;;;;;;4.27;3.40;;;36.30;97.90;;;;;;4994622;28;20478;-78
2023/08/16 13:34:23;;;;;;;4.27;3.87;;;36.50;97.40;;;;;;4997192;28;20483;-78
2023/08/16 13:36:53;;;;;;;3.70;3.40;;;36.80;96.70;;;;;;5000098;28;20574;-78
2023/08/16 13:39:31;;;;;;;3.93;3.50;;;36.80;96.30;;;;;;5001055;28;20523;-78
2023/08/16 13:42:06;;;;;;;4.20;3.90;;;36.90;95.90;;;;;;5003163;28;20459;-78
2023/08/16 13:44:47;;;;;;;;;;;;;;;;;;;;;
2023/08/16 13:47:19;;;;;;;6.30;4.50;;;36.70;95.50;;;;;;5000855;28;20478;-78
2023/08/16 13:49:55;;;;;;;3.97;3.30;;;36.80;95.10;;;;;;5001526;28;20896;-79
2023/08/16 13:52:36;;;;;;;;;;;;;;;;;;;;;
2023/08/16 13:55:06;;;;;;;3.90;3.60;;;36.50;94.50;;;;;;4999192;28;20547;-78
2023/08/16 13:57:38;;;;;;;3.70;3.50;;;36.50;94.60;;;;;;5000990;28;20548;-78
2023/08/16 14:00:25;;;;;;;4.40;4.10;;;36.90;94.20;;;;;;5000817;28;20482;-78
2023/08/16 14:02:53;;;;;;;3.87;3.50;;;37.20;93.30;;;;;;5003654;28;20452;-79
2023/08/16 14:05:25;;;;;;;4.10;3.80;;;37.10;93.50;;;;;;5002283;28;20456;-79
2023/08/16 14:08:02;;;;;;;3.53;3.33;;;37.40;92.90;;;;;;5003856;28;20456;-79
2023/08/16 14:10:34;;;;;;;3.50;3.20;;;37.10;92.50;;;;;;4999131;28;20462;-78
2023/08/16 14:13:06;;;;;;;5.83;3.50;;;37.00;92.50;;;;;;5000161;28;20456;-78
2023/08/16 14:15:35;;;;;;;3.83;3.53;;;37.10;92.30;;;;;;4996642;28;20514;-78
2023/08/16 14:18:03;;;;;;;3.80;3.60;;;37.00;92.50;;;;;;5002276;28;20537;-80
2023/08/16 14:20:34;;;;;;;4.37;4.10;;;36.90;92.70;;;;;;4998885;28;20460;-79
2023/08/16 14:23:06;;;;;;;4.87;3.40;;;36.40;92.90;;;;;;5000745;28;20977;-79
2023/08/16 14:25:33;;;;;;;4.03;3.73;;;35.80;93.20;;;;;;4995509;28;20601;-79
2023/08/16 14:28:01;;;;;;;3.93;3.30;;;35.60;93.40;;;;;;4983510;28;21138;-78
2023/08/16 14:30:32;;;;;;;3.63;3.43;;;35.50;93.90;;;;;;4985429;28;20951;-79
2023/08/16 14:33:00;;;;;;;3.87;3.57;;;35.40;93.90;;;;;;4980939;28;21011;-80
2023/08/16 14:35:33;;;;;;;3.70;3.50;;;35.20;93.90;;;;;;4985861;28;20576;-79
2023/08/16 14:38:07;;;;;;;3.50;3.30;;;35.10;93.40;;;;;;4986323;28;20509;-78
2023/08/16 14:40:38;;;;;;;4.10;3.80;;;34.90;93.60;;;;;;4991960;28;20450;-78
2023/08/16 14:43:16;;;;;;;3.77;3.47;;;34.80;93.70;;;;;;4986301;28;20444;-80
2023/08/16 14:45:44;;;;;;;4.10;3.30;;;34.40;94.00;;;;;;4996490;28;20510;-80
2023/08/16 14:48:12;;;;;;;3.40;3.10;;;34.00;94.40;;;;;;4996553;28;20528;-79